createdAt,value
2023-02-14T00:00:22.648Z,56.40
2023-02-14T00:02:50.885Z,51.38
2023-02-14T00:05:17.880Z,52.00
2023-02-14T00:07:44.555Z,50.20
2023-02-14T00:10:11.542Z,49.58
2023-02-14T00:12:38.340Z,50.00
2023-02-14T00:15:05.352Z,45.10
2023-02-14T00:17:31.991Z,50.03
2023-02-14T00:20:00.089Z,43.13
2023-02-14T00:22:26.892Z,43.28
2023-02-14T00:24:53.605Z,40.88
2023-02-14T00:27:20.382Z,50.13
2023-02-14T00:29:47.153Z,43.35
2023-02-14T00:32:13.944Z,45.83
2023-02-14T00:34:40.910Z,44.67
2023-02-14T00:37:09.020Z,43.90
2023-02-14T00:39:35.837Z,41.35
2023-02-14T00:42:02.503Z,42.45
2023-02-14T00:44:29.314Z,42.72
2023-02-14T00:46:56.094Z,41.30
2023-02-14T00:49:22.816Z,42.75
2023-02-14T00:51:49.504Z,45.90
2023-02-14T00:54:17.625Z,46.25
2023-02-14T00:56:44.315Z,42.47
2023-02-14T00:59:11.105Z,51.17
2023-02-14T01:01:38.262Z,40.17
2023-02-14T01:04:05.469Z,46.05
2023-02-14T01:06:32.117Z,45.05
2023-02-14T01:08:58.910Z,39.58
2023-02-14T01:11:29.284Z,44.13
2023-02-14T01:13:58.205Z,46.15
2023-02-14T01:16:26.721Z,41.17
2023-02-14T01:18:54.016Z,42.03
2023-02-14T01:21:23.309Z,51.47
2023-02-14T01:23:51.974Z,51.45
2023-02-14T01:26:19.587Z,57.53
2023-02-14T01:28:47.857Z,47.83
2023-02-14T01:31:16.528Z,50.88
2023-02-14T01:33:45.332Z,53.87
2023-02-14T01:36:16.574Z,55.73
2023-02-14T01:38:43.351Z,49.00
2023-02-14T01:41:10.180Z,51.03
2023-02-14T01:44:01.247Z,59.30
2023-02-14T01:46:29.887Z,57.42
2023-02-14T01:49:03.700Z,57.97
2023-02-14T01:51:32.398Z,55.38
2023-02-14T01:53:59.850Z,60.17
2023-02-14T01:56:30.945Z,53.35
2023-02-14T01:59:02.843Z,54.83
2023-02-14T02:01:31.184Z,53.40
2023-02-14T02:04:02.391Z,53.17
2023-02-14T02:06:33.517Z,58.55
2023-02-14T02:09:08.583Z,47.95
2023-02-14T02:11:35.766Z,50.33
2023-02-14T02:14:04.179Z,45.33
2023-02-14T02:16:46.320Z,45.38
2023-02-14T02:19:51.960Z,45.88
2023-02-14T02:23:06.893Z,42.05
2023-02-14T02:25:56.278Z,44.33
2023-02-14T02:28:41.754Z,42.42
2023-02-14T02:31:28.903Z,42.63
2023-02-14T02:34:22.840Z,45.90
2023-02-14T02:37:23.963Z,44.42
2023-02-14T02:40:06.498Z,47.60
2023-02-14T02:42:43.517Z,42.38
2023-02-14T02:45:17.385Z,47.13
2023-02-14T02:47:52.285Z,43.75
2023-02-14T02:50:23.153Z,51.33
2023-02-14T02:52:59.284Z,41.50
2023-02-14T02:55:31.337Z,42.25
2023-02-14T02:57:58.984Z,46.95
2023-02-14T03:00:26.248Z,47.63
2023-02-14T03:02:57.473Z,39.03
2023-02-14T03:05:25.317Z,41.88
2023-02-14T03:07:53.414Z,44.08
2023-02-14T03:10:22.441Z,44.13
2023-02-14T03:13:30.344Z,41.42
2023-02-14T03:16:31.506Z,43.13
2023-02-14T03:19:17.450Z,45.13
2023-02-14T03:21:51.883Z,41.05
2023-02-14T03:24:27.672Z,37.05
2023-02-14T03:27:01.971Z,42.38
2023-02-14T03:29:38.606Z,44.15
2023-02-14T03:32:11.687Z,41.08
2023-02-14T03:34:47.784Z,42.35
2023-02-14T03:37:20.055Z,41.28
2023-02-14T03:39:55.245Z,39.03
2023-02-14T03:42:26.332Z,38.03
2023-02-14T03:44:55.718Z,37.38
2023-02-14T03:47:24.561Z,36.88
2023-02-14T03:49:55.052Z,36.60
2023-02-14T03:52:23.508Z,37.90
2023-02-14T03:54:55.575Z,36.28
2023-02-14T03:57:26.473Z,39.15
2023-02-14T03:59:54.262Z,38.58
2023-02-14T04:02:25.041Z,44.33
2023-02-14T04:04:53.658Z,38.55
2023-02-14T04:07:22.491Z,39.17
2023-02-14T04:09:51.098Z,39.57
2023-02-14T04:12:26.579Z,38.10
2023-02-14T04:14:59.312Z,38.45
2023-02-14T04:17:25.981Z,38.35
2023-02-14T04:19:52.879Z,36.97
2023-02-14T04:22:19.661Z,37.40
2023-02-14T04:24:46.435Z,43.00
2023-02-14T04:27:14.494Z,37.97
2023-02-14T04:29:42.534Z,39.35
2023-02-14T04:32:11.812Z,40.05
2023-02-14T04:34:39.025Z,46.60
2023-02-14T04:37:06.963Z,38.72
2023-02-14T04:39:34.288Z,41.97
2023-02-14T04:42:01.172Z,38.40
2023-02-14T04:44:29.272Z,39.85
2023-02-14T04:46:56.006Z,38.67
2023-02-14T04:49:23.032Z,42.05
2023-02-14T04:51:49.772Z,41.35
2023-02-14T04:54:16.564Z,40.03
2023-02-14T04:56:43.238Z,40.40
2023-02-14T04:59:10.180Z,40.10
2023-02-14T05:01:38.433Z,43.78
2023-02-14T05:04:05.613Z,41.25
2023-02-14T05:06:32.347Z,39.30
2023-02-14T05:08:59.148Z,37.58
2023-02-14T05:11:26.660Z,42.83
2023-02-14T05:13:53.592Z,41.08
2023-02-14T05:16:20.389Z,39.50
2023-02-14T05:18:48.452Z,40.17
2023-02-14T05:21:15.224Z,40.55
2023-02-14T05:23:42.134Z,37.78
2023-02-14T05:26:08.966Z,44.78
2023-02-14T05:28:36.118Z,43.90
2023-02-14T05:31:03.720Z,44.33
2023-02-14T05:33:30.719Z,38.63
2023-02-14T05:36:00.264Z,40.78
2023-02-14T05:38:27.353Z,41.95
2023-02-14T05:40:54.112Z,37.15
2023-02-14T05:43:21.157Z,40.22
2023-02-14T05:45:47.990Z,40.70
2023-02-14T05:48:15.305Z,38.65
2023-02-14T05:50:42.002Z,37.42
2023-02-14T05:53:10.113Z,41.17
2023-02-14T05:55:37.007Z,36.05
2023-02-14T05:58:03.835Z,38.80
2023-02-14T06:00:31.056Z,38.67
2023-02-14T06:02:57.751Z,35.55
2023-02-14T06:05:24.476Z,37.17
2023-02-14T06:07:51.356Z,40.72
2023-02-14T06:10:20.924Z,37.05
2023-02-14T06:12:49.660Z,35.30
2023-02-14T06:15:16.867Z,39.33
2023-02-14T06:17:43.880Z,36.75
2023-02-14T06:20:11.166Z,40.67
2023-02-14T06:22:38.362Z,40.50
2023-02-14T06:25:06.225Z,34.50
2023-02-14T06:27:34.344Z,34.03
2023-02-14T06:30:01.151Z,33.22
2023-02-14T06:32:27.939Z,36.03
2023-02-14T06:34:54.602Z,35.47
2023-02-14T06:37:21.354Z,34.53
2023-02-14T06:39:48.180Z,32.08
2023-02-14T06:42:14.849Z,35.50
2023-02-14T06:44:42.899Z,33.05
2023-02-14T06:47:09.655Z,36.13
2023-02-14T06:49:36.247Z,34.22
2023-02-14T06:52:05.080Z,34.45
2023-02-14T06:54:32.193Z,31.10
2023-02-14T06:56:58.883Z,33.10
2023-02-14T06:59:25.546Z,32.00
2023-02-14T07:01:53.662Z,31.98
2023-02-14T07:06:46.930Z,29.83
2023-02-14T07:09:13.610Z,30.58
2023-02-14T07:11:40.273Z,32.30
2023-02-14T07:14:07.047Z,33.40
2023-02-14T07:16:33.754Z,34.15
2023-02-14T07:19:01.939Z,28.70
2023-02-14T07:21:28.672Z,26.20
2023-02-14T07:23:55.446Z,30.70
2023-02-14T07:26:22.404Z,31.10
2023-02-14T07:28:49.271Z,36.13
2023-02-14T07:31:17.718Z,30.63
2023-02-14T07:33:44.464Z,28.15
2023-02-14T07:36:12.614Z,30.15
2023-02-14T07:38:39.394Z,30.45
2023-02-14T07:41:06.297Z,33.80
2023-02-14T07:43:33.080Z,30.83
2023-02-14T07:46:00.278Z,28.25
2023-02-14T07:48:29.423Z,34.75
2023-02-14T07:50:57.743Z,26.50
2023-02-14T07:53:26.179Z,26.65
2023-02-14T07:55:53.107Z,28.27
2023-02-14T07:58:19.854Z,29.85
2023-02-14T08:00:46.681Z,28.83
2023-02-14T08:03:13.532Z,29.48
2023-02-14T08:05:40.353Z,34.22
2023-02-14T08:08:07.022Z,33.92
2023-02-14T08:10:35.202Z,30.13
2023-02-14T08:13:02.053Z,27.98
2023-02-14T08:15:30.025Z,29.63
2023-02-14T08:17:57.049Z,29.90
2023-02-14T08:20:23.756Z,29.73
2023-02-14T08:22:50.503Z,34.10
2023-02-14T08:25:17.338Z,31.35
2023-02-14T08:27:45.409Z,28.10
2023-02-14T08:30:12.962Z,33.22
2023-02-14T08:32:39.802Z,35.38
2023-02-14T08:35:07.654Z,29.38
2023-02-14T08:37:34.409Z,32.00
2023-02-14T08:40:49.903Z,33.15
2023-02-14T08:43:16.229Z,33.92
2023-02-14T08:48:11.825Z,32.03
2023-02-14T08:50:40.960Z,36.97
2023-02-14T08:53:09.090Z,28.45
2023-02-14T08:55:36.489Z,29.73
2023-02-14T08:58:03.438Z,29.25
2023-02-14T09:00:32.320Z,29.40
2023-02-14T09:02:59.720Z,34.22
2023-02-14T09:05:27.121Z,30.60
2023-02-14T09:07:53.924Z,28.17
2023-02-14T09:10:20.716Z,32.03
2023-02-14T09:12:47.475Z,33.20
2023-02-14T09:15:14.246Z,29.88
2023-02-14T09:17:42.707Z,35.47
2023-02-14T09:20:11.560Z,29.67
2023-02-14T09:22:38.238Z,26.70
2023-02-14T09:25:05.474Z,25.50
2023-02-14T09:27:32.564Z,32.30
2023-02-14T09:29:59.273Z,25.63
2023-02-14T09:32:26.024Z,26.70
2023-02-14T09:34:54.144Z,27.98
2023-02-14T09:37:20.884Z,23.80
2023-02-14T09:39:47.549Z,28.57
2023-02-14T09:42:40.140Z,22.55
2023-02-14T09:45:12.209Z,20.48
2023-02-14T09:47:44.925Z,19.92
2023-02-14T09:50:20.612Z,20.95
2023-02-14T09:52:50.857Z,22.42
2023-02-14T09:55:18.903Z,25.10
2023-02-14T09:57:59.252Z,26.67
2023-02-14T10:00:35.499Z,23.52
2023-02-14T10:03:19.233Z,23.05
2023-02-14T10:05:55.883Z,16.98
2023-02-14T10:08:36.773Z,18.35
2023-02-14T10:11:07.072Z,20.90
2023-02-14T10:13:40.317Z,20.92
2023-02-14T10:16:14.219Z,20.65
2023-02-14T10:18:45.051Z,20.90
2023-02-14T10:21:19.183Z,21.00
2023-02-14T10:23:51.722Z,20.27
2023-02-14T10:26:24.775Z,20.20
2023-02-14T10:28:51.502Z,17.38
2023-02-14T10:31:22.059Z,17.15
2023-02-14T10:33:57.355Z,15.77
2023-02-14T10:36:52.205Z,19.27
2023-02-14T10:39:36.597Z,24.00
2023-02-14T10:42:15.824Z,20.60
2023-02-14T10:44:49.185Z,18.98
2023-02-14T10:47:30.467Z,15.63
2023-02-14T10:50:05.172Z,18.33
2023-02-14T10:52:40.334Z,17.92
2023-02-14T10:55:30.074Z,21.83
2023-02-14T10:57:58.826Z,17.23
2023-02-14T11:00:29.369Z,18.52
2023-02-14T11:02:57.955Z,17.98
2023-02-14T11:05:28.222Z,15.00
2023-02-14T11:07:56.486Z,15.98
2023-02-14T11:10:26.799Z,13.05
2023-02-14T11:12:53.868Z,12.15
2023-02-14T11:15:25.959Z,15.63
2023-02-14T11:18:13.384Z,16.23
2023-02-14T11:20:40.026Z,11.38
2023-02-14T11:23:20.647Z,19.52
2023-02-14T11:25:51.266Z,13.57
2023-02-14T11:28:19.477Z,13.90
2023-02-14T11:30:48.236Z,12.90
2023-02-14T11:33:28.924Z,12.80
2023-02-14T11:35:57.029Z,14.82
2023-02-14T11:38:28.979Z,12.68
2023-02-14T11:40:57.556Z,14.23
2023-02-14T11:43:31.651Z,13.93
2023-02-14T11:46:12.376Z,11.80
2023-02-14T11:48:53.735Z,12.38
2023-02-14T11:51:28.031Z,12.20
2023-02-14T11:53:58.080Z,13.20
2023-02-14T11:56:24.781Z,15.10
2023-02-14T11:58:57.524Z,14.13
2023-02-14T12:01:26.738Z,18.23
2023-02-14T12:03:56.015Z,12.88
2023-02-14T12:06:24.818Z,14.13
2023-02-14T12:08:51.601Z,13.53
2023-02-14T12:11:21.842Z,12.63
2023-02-14T12:13:53.314Z,12.90
2023-02-14T12:16:24.290Z,14.68
2023-02-14T12:18:55.705Z,14.35
2023-02-14T12:21:44.144Z,16.55
2023-02-14T12:24:22.925Z,12.15
2023-02-14T12:26:58.578Z,15.70
2023-02-14T12:29:32.035Z,12.60
2023-02-14T12:32:02.893Z,14.27
2023-02-14T12:34:29.960Z,13.80
2023-02-14T12:37:16.609Z,12.20
2023-02-14T12:39:58.109Z,13.48
2023-02-14T12:42:42.685Z,11.32
2023-02-14T12:45:19.988Z,12.60
2023-02-14T12:47:57.531Z,17.52
2023-02-14T12:50:33.784Z,12.45
2023-02-14T12:53:32.224Z,14.10
2023-02-14T12:56:08.424Z,15.75
2023-02-14T12:58:50.135Z,16.73
2023-02-14T13:01:38.996Z,14.35
2023-02-14T13:04:20.906Z,14.02
2023-02-14T13:06:51.629Z,14.15
2023-02-14T13:09:29.730Z,14.05
2023-02-14T13:12:08.097Z,11.88
2023-02-14T13:15:02.741Z,11.95
2023-02-14T13:17:36.645Z,13.30
2023-02-14T13:20:17.201Z,14.73
2023-02-14T13:22:44.251Z,13.80
2023-02-14T13:25:21.950Z,16.05
2023-02-14T13:27:52.238Z,15.20
2023-02-14T13:30:27.633Z,16.17
2023-02-14T13:32:57.624Z,13.70
2023-02-14T13:35:27.943Z,12.98
2023-02-14T13:37:59.555Z,16.98
2023-02-14T13:40:28.465Z,12.88
2023-02-14T13:42:56.990Z,13.32
2023-02-14T13:46:03.273Z,15.35
2023-02-14T13:48:31.814Z,10.48
2023-02-14T13:51:01.139Z,14.57
2023-02-14T13:53:34.988Z,13.23
2023-02-14T13:56:03.845Z,14.27
2023-02-14T13:58:30.904Z,12.25
2023-02-14T14:00:57.748Z,12.95
2023-02-14T14:03:55.491Z,12.45
2023-02-14T14:06:22.226Z,11.02
2023-02-14T14:08:51.096Z,10.80
2023-02-14T14:11:57.586Z,12.13
2023-02-14T14:14:59.038Z,13.15
2023-02-14T14:17:35.779Z,12.00
2023-02-14T14:20:31.481Z,16.13
2023-02-14T14:23:00.385Z,10.65
2023-02-14T14:25:31.463Z,10.95
2023-02-14T14:27:59.032Z,11.20
2023-02-14T14:30:35.159Z,12.55
2023-02-14T14:33:13.535Z,12.93
2023-02-14T14:35:52.339Z,9.65
2023-02-14T14:38:19.101Z,10.75
2023-02-14T14:40:47.358Z,9.55
2023-02-14T14:43:18.986Z,12.73
2023-02-14T14:45:48.009Z,11.55
2023-02-14T14:48:22.335Z,10.60
2023-02-14T14:50:50.630Z,11.82
2023-02-14T14:53:22.588Z,13.57
2023-02-14T14:55:49.530Z,9.43
2023-02-14T14:58:33.203Z,14.43
2023-02-14T15:01:00.278Z,11.13
2023-02-14T15:03:28.381Z,10.52
2023-02-14T15:06:07.322Z,9.95
2023-02-14T15:08:34.896Z,9.15
2023-02-14T15:11:06.646Z,9.65
2023-02-14T15:13:38.425Z,12.00
2023-02-14T15:16:05.638Z,8.85
2023-02-14T15:18:32.689Z,9.13
2023-02-14T15:21:05.753Z,8.98
2023-02-14T15:23:32.529Z,10.00
2023-02-14T15:25:59.408Z,8.90
2023-02-14T15:28:28.182Z,10.57
2023-02-14T15:31:01.554Z,11.20
2023-02-14T15:33:30.394Z,14.43
2023-02-14T15:35:59.085Z,9.48
2023-02-14T15:38:28.212Z,9.57
2023-02-14T15:40:55.586Z,9.10
2023-02-14T15:43:29.682Z,10.13
2023-02-14T15:45:59.562Z,7.95
2023-02-14T15:48:28.836Z,10.98
2023-02-14T15:50:57.316Z,9.82
2023-02-14T15:53:34.538Z,8.05
2023-02-14T15:56:07.953Z,7.88
2023-02-14T15:58:37.630Z,9.20
2023-02-14T16:03:38.889Z,14.02
2023-02-14T16:06:07.943Z,7.85
2023-02-14T16:08:40.710Z,8.25
2023-02-14T16:11:13.825Z,9.30
2023-02-14T16:13:42.134Z,8.82
2023-02-14T16:16:10.469Z,10.35
2023-02-14T16:18:40.761Z,13.77
2023-02-14T16:21:13.111Z,10.27
2023-02-14T16:23:42.431Z,12.40
2023-02-14T16:26:09.329Z,9.57
2023-02-14T16:28:36.151Z,12.88
2023-02-14T16:31:04.583Z,9.68
2023-02-14T16:33:35.887Z,10.93
2023-02-14T16:36:05.669Z,9.98
2023-02-14T16:38:35.330Z,12.50
2023-02-14T16:43:30.114Z,9.88
2023-02-14T16:45:56.866Z,12.23
2023-02-14T16:48:23.581Z,11.43
2023-02-14T16:50:50.483Z,13.30
2023-02-14T16:53:27.154Z,13.82
2023-02-14T16:55:56.056Z,12.48
2023-02-14T16:58:31.845Z,19.70
2023-02-14T17:00:58.978Z,12.32
2023-02-14T17:03:25.909Z,15.02
2023-02-14T17:05:52.997Z,13.18
2023-02-14T17:08:19.784Z,18.88
2023-02-14T17:10:47.853Z,13.80
2023-02-14T17:13:19.018Z,13.60
2023-02-14T17:15:47.586Z,13.60
2023-02-14T17:18:17.044Z,15.70
2023-02-14T17:20:43.888Z,14.20
2023-02-14T17:23:10.759Z,13.77
2023-02-14T17:25:37.708Z,14.25
2023-02-14T17:28:04.980Z,14.10
2023-02-14T17:30:31.708Z,15.77
2023-02-14T17:33:00.585Z,16.80
2023-02-14T17:35:27.554Z,17.40
2023-02-14T17:37:54.250Z,20.02
2023-02-14T17:40:21.309Z,19.88
2023-02-14T17:42:48.041Z,21.55
2023-02-14T17:45:14.801Z,22.63
2023-02-14T17:47:41.685Z,26.98
2023-02-14T17:50:10.382Z,21.25
2023-02-14T17:52:37.577Z,18.77
2023-02-14T17:55:04.721Z,19.52
2023-02-14T17:57:31.497Z,21.35
2023-02-14T17:59:58.798Z,20.35
2023-02-14T18:02:26.051Z,23.40
2023-02-14T18:04:52.948Z,18.17
2023-02-14T18:07:21.187Z,19.40
2023-02-14T18:09:47.931Z,20.45
2023-02-14T18:12:15.210Z,19.80
2023-02-14T18:14:42.610Z,18.90
2023-02-14T18:17:11.357Z,16.60
2023-02-14T18:19:38.188Z,17.53
2023-02-14T18:22:05.030Z,17.30
2023-02-14T18:24:35.555Z,18.52
2023-02-14T18:27:02.309Z,17.67
2023-02-14T18:29:29.202Z,18.83
2023-02-14T18:31:56.014Z,17.98
2023-02-14T18:34:23.186Z,17.80
2023-02-14T18:36:50.004Z,17.35
2023-02-14T18:39:16.812Z,20.58
2023-02-14T18:41:44.952Z,18.88
2023-02-14T18:44:12.001Z,19.42
2023-02-14T18:46:39.337Z,18.45
2023-02-14T18:49:06.730Z,18.55
2023-02-14T18:51:35.993Z,24.38
2023-02-14T18:54:03.749Z,16.23
2023-02-14T18:56:32.896Z,24.83
2023-02-14T18:59:03.330Z,17.98
2023-02-14T19:01:32.117Z,19.00
2023-02-14T19:04:00.804Z,19.63
2023-02-14T19:06:28.964Z,18.60
2023-02-14T19:08:56.219Z,23.80
2023-02-14T19:11:24.935Z,19.83
2023-02-14T19:13:53.926Z,20.17
2023-02-14T19:16:24.223Z,19.55
2023-02-14T19:18:51.162Z,18.02
2023-02-14T19:21:20.216Z,19.63
2023-02-14T19:23:48.374Z,20.58
2023-02-14T19:26:17.590Z,20.67
2023-02-14T19:28:45.585Z,22.73
2023-02-14T19:31:12.480Z,20.60
2023-02-14T19:33:42.599Z,18.83
2023-02-14T19:36:11.487Z,21.48
2023-02-14T19:38:38.763Z,20.25
2023-02-14T19:41:06.392Z,21.90
2023-02-14T19:43:33.277Z,20.65
2023-02-14T19:46:00.153Z,20.55
2023-02-14T19:48:26.923Z,23.67
2023-02-14T19:50:55.081Z,24.55
2023-02-14T19:53:21.862Z,21.10
2023-02-14T19:55:48.670Z,20.63
2023-02-14T19:58:15.358Z,21.17
2023-02-14T20:00:42.562Z,24.38
2023-02-14T20:03:09.251Z,24.90
2023-02-14T20:05:38.268Z,26.63
2023-02-14T20:08:06.589Z,24.30
2023-02-14T20:10:33.382Z,25.60
2023-02-14T20:13:00.125Z,24.50
2023-02-14T20:15:26.915Z,25.00
2023-02-14T20:17:53.667Z,22.52
2023-02-14T20:20:20.494Z,23.55
2023-02-14T20:22:47.268Z,22.48
2023-02-14T20:25:15.541Z,23.75
2023-02-14T20:27:42.293Z,25.75
2023-02-14T20:30:09.935Z,22.90
2023-02-14T20:32:36.790Z,23.25
2023-02-14T20:35:04.176Z,25.83
2023-02-14T20:37:31.009Z,24.25
2023-02-14T20:39:57.674Z,25.17
2023-02-14T20:42:26.104Z,23.30
2023-02-14T20:44:53.002Z,24.77
2023-02-14T20:47:19.761Z,24.55
2023-02-14T20:49:46.501Z,24.83
2023-02-14T20:52:13.318Z,22.73
2023-02-14T20:54:46.613Z,23.08
2023-02-14T20:57:13.437Z,22.98
2023-02-14T20:59:41.867Z,23.92
2023-02-14T21:02:09.818Z,27.03
2023-02-14T21:04:36.848Z,27.00
2023-02-14T21:07:03.912Z,26.05
2023-02-14T21:09:30.616Z,25.43
2023-02-14T21:11:57.320Z,25.27
2023-02-14T21:14:24.022Z,31.67
2023-02-14T21:16:52.106Z,30.83
2023-02-14T21:19:18.954Z,36.50
2023-02-14T21:21:45.913Z,38.70
2023-02-14T21:24:14.088Z,40.78
2023-02-14T21:26:41.008Z,45.67
2023-02-14T21:29:08.749Z,52.95
2023-02-14T21:31:36.211Z,46.47
2023-02-14T21:34:04.567Z,46.77
2023-02-14T21:36:33.363Z,42.78
2023-02-14T21:39:00.146Z,46.13
2023-02-14T21:41:28.758Z,44.92
2023-02-14T21:43:56.972Z,46.92
2023-02-14T21:46:25.416Z,43.33
2023-02-14T21:48:52.238Z,38.63
2023-02-14T21:51:20.844Z,42.97
2023-02-14T21:53:47.758Z,42.20
2023-02-14T21:56:17.992Z,40.78
2023-02-14T21:58:45.218Z,41.13
2023-02-14T22:01:16.860Z,35.58
2023-02-14T22:03:43.618Z,33.95
2023-02-14T22:06:10.707Z,32.03
2023-02-14T22:08:39.719Z,29.35
2023-02-14T22:11:07.218Z,27.05
2023-02-14T22:13:34.612Z,24.58
2023-02-14T22:16:02.343Z,22.25
2023-02-14T22:18:29.327Z,30.05
2023-02-14T22:21:00.257Z,30.75
2023-02-14T22:23:29.001Z,30.27
2023-02-14T22:25:57.694Z,27.87
2023-02-14T22:28:24.440Z,29.33
2023-02-14T22:30:51.566Z,32.22
2023-02-14T22:33:19.770Z,36.72
2023-02-14T22:35:55.804Z,43.90
2023-02-14T22:38:24.725Z,45.47
2023-02-14T22:40:51.717Z,40.90
2023-02-14T22:43:19.892Z,43.25
2023-02-14T22:45:46.551Z,39.35
2023-02-14T22:48:13.418Z,42.72
2023-02-14T22:50:40.119Z,44.07
2023-02-14T22:53:06.901Z,46.85
2023-02-14T22:55:33.906Z,46.13
2023-02-14T22:58:00.637Z,45.63
2023-02-14T23:00:28.666Z,48.70
2023-02-14T23:02:55.449Z,46.20
2023-02-14T23:05:22.431Z,52.25
2023-02-14T23:07:49.125Z,49.47
2023-02-14T23:10:16.085Z,51.90
2023-02-14T23:12:42.925Z,54.97
2023-02-14T23:15:10.295Z,56.33
2023-02-14T23:17:38.505Z,59.92
2023-02-14T23:20:06.250Z,58.30
2023-02-14T23:22:34.677Z,61.37
2023-02-14T23:25:04.429Z,65.90
2023-02-14T23:27:33.791Z,63.23
2023-02-14T23:30:01.376Z,62.88
2023-02-14T23:32:28.463Z,63.40
2023-02-14T23:34:58.623Z,63.65
2023-02-14T23:37:26.088Z,60.17
2023-02-14T23:39:52.909Z,67.03
2023-02-14T23:42:19.846Z,66.00
2023-02-14T23:44:46.667Z,71.03
2023-02-14T23:47:14.219Z,71.07
2023-02-14T23:49:41.602Z,75.70
2023-02-14T23:52:12.077Z,63.55
2023-02-14T23:54:39.299Z,59.78
2023-02-14T23:57:07.022Z,62.50
2023-02-14T23:59:33.944Z,62.30
